createdAt,value
2022-09-01T00:00:18.559Z,20.11
2022-09-01T00:02:47.034Z,20.11
2022-09-01T00:05:15.214Z,20.10
2022-09-01T00:07:43.032Z,20.06
2022-09-01T00:10:11.295Z,20.04
2022-09-01T00:12:39.840Z,20.02
2022-09-01T00:15:11.106Z,20.02
2022-09-01T00:17:39.218Z,20.00
2022-09-01T00:20:08.331Z,19.97
2022-09-01T00:22:36.323Z,19.96
2022-09-01T00:25:06.009Z,19.93
2022-09-01T00:27:33.888Z,19.93
2022-09-01T00:30:01.848Z,19.91
2022-09-01T00:32:30.716Z,19.90
2022-09-01T00:34:58.537Z,19.88
2022-09-01T00:37:26.386Z,19.84
2022-09-01T00:39:54.236Z,19.82
2022-09-01T00:42:22.130Z,19.81
2022-09-01T00:44:49.935Z,19.82
2022-09-01T00:47:19.226Z,19.81
2022-09-01T00:49:51.217Z,19.82
2022-09-01T00:52:32.424Z,19.83
2022-09-01T00:55:29.952Z,19.83
2022-09-01T00:58:03.448Z,19.81
2022-09-01T01:00:34.322Z,19.80
2022-09-01T01:03:02.266Z,19.77
2022-09-01T01:05:36.607Z,19.78
2022-09-01T01:08:06.582Z,19.78
2022-09-01T01:10:42.024Z,19.79
2022-09-01T01:13:17.174Z,19.79
2022-09-01T01:15:45.432Z,19.78
2022-09-01T01:18:16.946Z,19.75
2022-09-01T01:21:28.892Z,19.75
2022-09-01T01:24:23.166Z,19.73
2022-09-01T01:26:53.226Z,19.68
2022-09-01T01:29:21.974Z,19.65
2022-09-01T01:31:53.967Z,19.65
2022-09-01T01:34:23.456Z,19.63
2022-09-01T01:36:51.975Z,19.63
2022-09-01T01:39:27.678Z,19.61
2022-09-01T01:41:57.927Z,19.56
2022-09-01T01:44:31.099Z,19.54
2022-09-01T01:47:04.477Z,19.52
2022-09-01T01:49:34.748Z,19.48
2022-09-01T01:52:04.719Z,19.45
2022-09-01T01:54:37.518Z,19.48
2022-09-01T01:57:05.593Z,19.42
2022-09-01T01:59:33.868Z,19.41
2022-09-01T02:02:08.705Z,19.43
2022-09-01T02:04:37.050Z,19.46
2022-09-01T02:07:13.100Z,19.46
2022-09-01T02:09:46.047Z,19.46
2022-09-01T02:12:19.669Z,19.46
2022-09-01T02:14:48.592Z,19.44
2022-09-01T02:17:17.327Z,19.46
2022-09-01T02:19:47.394Z,19.43
2022-09-01T02:22:15.368Z,19.43
2022-09-01T02:24:49.225Z,19.44
2022-09-01T02:27:21.982Z,19.43
2022-09-01T02:29:55.491Z,19.42
2022-09-01T02:32:24.112Z,19.41
2022-09-01T02:34:53.939Z,19.36
2022-09-01T02:37:25.314Z,19.35
2022-09-01T02:39:53.948Z,19.33
2022-09-01T02:42:27.581Z,19.32
2022-09-01T02:44:57.446Z,19.30
2022-09-01T02:47:29.760Z,19.27
2022-09-01T02:50:01.093Z,19.28
2022-09-01T02:52:37.611Z,19.24
2022-09-01T02:55:06.870Z,19.20
2022-09-01T02:57:35.236Z,19.15
2022-09-01T03:00:20.787Z,19.11
2022-09-01T03:02:53.014Z,19.10
2022-09-01T03:05:27.079Z,19.02
2022-09-01T03:08:01.689Z,19.02
2022-09-01T03:10:35.531Z,19.01
2022-09-01T03:13:08.901Z,19.00
2022-09-01T03:15:38.209Z,19.00
2022-09-01T03:18:08.149Z,18.96
2022-09-01T03:20:39.537Z,18.94
2022-09-01T03:23:08.640Z,18.91
2022-09-01T03:25:37.582Z,18.88
2022-09-01T03:28:06.702Z,18.89
2022-09-01T03:30:40.154Z,18.88
2022-09-01T03:33:08.417Z,18.91
2022-09-01T03:35:37.184Z,18.89
2022-09-01T03:38:05.709Z,18.87
2022-09-01T03:40:37.035Z,18.85
2022-09-01T03:43:12.946Z,18.86
2022-09-01T03:45:44.844Z,18.83
2022-09-01T03:48:16.865Z,18.83
2022-09-01T03:50:46.380Z,18.79
2022-09-01T03:53:22.812Z,18.79
2022-09-01T03:55:50.763Z,18.79
2022-09-01T03:58:20.187Z,18.75
2022-09-01T04:00:55.461Z,18.73
2022-09-01T04:03:29.081Z,18.71
2022-09-01T04:06:02.508Z,18.70
2022-09-01T04:08:32.578Z,18.68
2022-09-01T04:11:11.373Z,18.69
2022-09-01T04:13:41.969Z,18.70
2022-09-01T04:16:43.511Z,18.70
2022-09-01T04:19:25.188Z,18.72
2022-09-01T04:22:05.434Z,18.72
2022-09-01T04:24:45.519Z,18.70
2022-09-01T04:27:15.212Z,18.68
2022-09-01T04:29:46.538Z,18.68
2022-09-01T04:32:15.934Z,18.69
2022-09-01T04:34:49.848Z,18.70
2022-09-01T04:37:22.094Z,18.68
2022-09-01T04:40:03.721Z,18.81
2022-09-01T04:42:33.135Z,18.78
2022-09-01T04:45:09.935Z,18.70
2022-09-01T04:47:42.169Z,18.71
2022-09-01T04:50:17.600Z,18.69
2022-09-01T04:53:07.322Z,18.73
2022-09-01T04:55:49.768Z,18.72
2022-09-01T04:58:20.580Z,18.72
2022-09-01T05:00:52.248Z,18.70
2022-09-01T05:03:22.377Z,18.73
2022-09-01T05:06:03.940Z,18.75
2022-09-01T05:08:35.210Z,18.74
2022-09-01T05:11:08.055Z,18.76
2022-09-01T05:13:43.534Z,18.78
2022-09-01T05:16:15.947Z,18.79
2022-09-01T05:18:49.071Z,18.75
2022-09-01T05:21:24.824Z,18.74
2022-09-01T05:23:54.401Z,18.72
2022-09-01T05:26:34.682Z,18.73
2022-09-01T05:29:10.802Z,18.73
2022-09-01T05:31:42.457Z,18.73
2022-09-01T05:34:11.041Z,18.76
2022-09-01T05:36:46.351Z,18.78
2022-09-01T05:39:14.852Z,18.78
2022-09-01T05:41:43.249Z,18.78
2022-09-01T05:44:14.169Z,18.79
2022-09-01T05:46:44.590Z,18.82
2022-09-01T05:49:18.573Z,18.86
2022-09-01T05:51:51.887Z,18.89
2022-09-01T05:54:27.479Z,18.94
2022-09-01T05:57:12.634Z,18.99
2022-09-01T05:59:53.687Z,19.01
2022-09-01T06:02:27.313Z,19.00
2022-09-01T06:04:57.489Z,19.16
2022-09-01T06:07:30.931Z,19.14
2022-09-01T06:10:01.132Z,19.07
2022-09-01T06:12:29.068Z,19.05
2022-09-01T06:14:57.999Z,19.03
2022-09-01T06:17:29.010Z,19.02
2022-09-01T06:20:02.031Z,19.05
2022-09-01T06:22:34.652Z,19.20
2022-09-01T06:25:06.702Z,19.17
2022-09-01T06:27:44.470Z,19.14
2022-09-01T06:30:23.189Z,19.12
2022-09-01T06:32:57.330Z,19.16
2022-09-01T06:35:29.580Z,19.20
2022-09-01T06:37:58.720Z,19.25
2022-09-01T06:40:42.785Z,19.25
2022-09-01T06:43:16.219Z,19.31
2022-09-01T06:45:49.781Z,19.34
2022-09-01T06:48:18.624Z,19.37
2022-09-01T06:53:35.738Z,19.48
2022-09-01T06:56:10.162Z,19.48
2022-09-01T06:58:48.296Z,19.50
2022-09-01T07:01:21.286Z,19.56
2022-09-01T07:03:53.426Z,19.62
2022-09-01T07:09:38.833Z,19.73
2022-09-01T07:12:25.943Z,19.90
2022-09-01T07:17:55.583Z,19.89
2022-09-01T07:20:29.385Z,19.92
2022-09-01T07:23:07.073Z,19.96
2022-09-01T07:26:00.979Z,20.00
2022-09-01T07:28:37.926Z,20.06
2022-09-01T07:39:50.617Z,20.25
2022-09-01T07:49:28.706Z,20.40
2022-09-01T07:51:50.214Z,20.48
2022-09-01T07:54:23.815Z,20.54
2022-09-01T07:56:54.431Z,20.62
2022-09-01T07:59:23.431Z,20.69
2022-09-01T08:01:58.035Z,20.78
2022-09-01T08:04:26.732Z,20.85
2022-09-01T08:06:57.590Z,20.92
2022-09-01T08:09:32.786Z,20.95
2022-09-01T08:12:08.337Z,21.00
2022-09-01T08:14:44.191Z,21.08
2022-09-01T08:20:08.429Z,21.25
2022-09-01T08:23:18.376Z,21.39
2022-09-01T08:25:48.595Z,21.43
2022-09-01T08:28:26.287Z,21.49
2022-09-01T08:30:56.341Z,21.53
2022-09-01T08:33:26.447Z,21.60
2022-09-01T08:35:55.439Z,21.71
2022-09-01T08:38:24.012Z,21.78
2022-09-01T08:40:57.836Z,21.89
2022-09-01T08:44:01.829Z,22.02
2022-09-01T08:46:39.950Z,22.14
2022-09-01T08:49:29.521Z,22.23
2022-09-01T08:52:33.052Z,22.32
2022-09-01T08:55:27.420Z,22.36
2022-09-01T08:57:59.877Z,22.40
2022-09-01T09:00:37.069Z,22.52
2022-09-01T09:03:41.483Z,22.66
2022-09-01T09:06:24.756Z,22.71
2022-09-01T09:08:55.412Z,22.76
2022-09-01T09:11:48.441Z,22.79
2022-09-01T09:14:47.515Z,22.92
2022-09-01T09:17:22.400Z,22.96
2022-09-01T09:19:50.181Z,22.99
2022-09-01T09:22:21.186Z,23.07
2022-09-01T09:25:03.182Z,23.13
2022-09-01T09:27:40.912Z,23.16
2022-09-01T09:30:19.330Z,23.12
2022-09-01T09:33:46.591Z,23.15
2022-09-01T09:35:48.561Z,23.18
2022-09-01T09:38:29.416Z,23.14
2022-09-01T09:41:18.788Z,23.13
2022-09-01T09:44:23.140Z,23.15
2022-09-01T09:46:51.787Z,23.21
2022-09-01T09:49:41.422Z,23.29
2022-09-01T09:52:16.409Z,23.38
2022-09-01T09:55:30.616Z,23.64
2022-09-01T09:58:01.717Z,23.63
2022-09-01T10:00:34.597Z,23.68
2022-09-01T10:03:13.103Z,23.78
2022-09-01T10:05:51.962Z,23.90
2022-09-01T10:08:37.144Z,23.96
2022-09-01T10:11:08.123Z,24.07
2022-09-01T10:13:36.843Z,24.16
2022-09-01T10:16:42.600Z,24.20
2022-09-01T10:19:16.366Z,24.28
2022-09-01T10:21:46.149Z,24.30
2022-09-01T10:24:33.568Z,24.38
2022-09-01T10:27:14.333Z,24.45
2022-09-01T10:30:18.753Z,24.51
2022-09-01T10:32:55.277Z,24.56
2022-09-01T10:35:34.376Z,24.59
2022-09-01T10:38:16.127Z,24.59
2022-09-01T10:41:07.327Z,24.61
2022-09-01T10:43:45.406Z,24.69
2022-09-01T10:46:26.576Z,24.72
2022-09-01T10:49:03.476Z,24.75
2022-09-01T10:51:50.566Z,24.86
2022-09-01T10:54:50.841Z,24.96
2022-09-01T10:57:31.065Z,25.00
2022-09-01T11:00:39.839Z,25.02
2022-09-01T11:06:17.509Z,25.14
2022-09-01T11:08:58.373Z,25.14
2022-09-01T11:11:35.881Z,25.13
2022-09-01T11:14:06.835Z,25.10
2022-09-01T11:16:48.043Z,25.07
2022-09-01T11:19:37.928Z,25.06
2022-09-01T11:22:26.877Z,24.95
2022-09-01T11:25:40.963Z,24.92
2022-09-01T11:28:18.153Z,24.97
2022-09-01T11:31:06.867Z,24.98
2022-09-01T11:34:11.251Z,25.01
2022-09-01T11:36:47.243Z,25.14
2022-09-01T11:39:21.072Z,25.20
2022-09-01T11:42:06.839Z,25.32
2022-09-01T11:45:21.558Z,25.42
2022-09-01T11:47:57.300Z,25.49
2022-09-01T11:50:30.655Z,25.49
2022-09-01T11:53:13.967Z,25.54
2022-09-01T11:55:46.056Z,25.49
2022-09-01T11:58:39.320Z,25.40
2022-09-01T12:01:19.263Z,25.40
2022-09-01T12:03:50.042Z,25.31
2022-09-01T12:06:27.916Z,25.24
2022-09-01T12:09:02.342Z,25.26
2022-09-01T12:11:34.181Z,25.27
2022-09-01T12:14:11.784Z,25.31
2022-09-01T12:16:42.636Z,25.29
2022-09-01T12:19:25.867Z,25.26
2022-09-01T12:22:15.444Z,25.24
2022-09-01T12:24:51.131Z,25.26
2022-09-01T12:27:20.093Z,25.19
2022-09-01T12:29:47.981Z,25.19
2022-09-01T12:32:16.885Z,25.25
2022-09-01T12:35:11.571Z,25.34
2022-09-01T12:37:39.701Z,25.46
2022-09-01T12:40:30.970Z,25.53
2022-09-01T12:42:58.780Z,25.62
2022-09-01T12:45:46.652Z,25.64
2022-09-01T12:48:29.003Z,25.68
2022-09-01T12:51:24.546Z,25.81
2022-09-01T12:53:58.876Z,25.69
2022-09-01T12:56:32.844Z,25.71
2022-09-01T12:59:37.599Z,25.79
2022-09-01T13:02:35.148Z,25.89
2022-09-01T13:05:40.957Z,26.01
2022-09-01T13:08:16.383Z,26.14
2022-09-01T13:10:53.433Z,26.29
2022-09-01T13:13:24.295Z,26.40
2022-09-01T13:15:57.647Z,26.45
2022-09-01T13:18:26.602Z,26.52
2022-09-01T13:20:56.008Z,26.48
2022-09-01T13:23:24.392Z,26.48
2022-09-01T13:25:53.019Z,26.51
2022-09-01T13:36:46.971Z,26.60
2022-09-01T13:39:20.450Z,26.60
2022-09-01T13:41:49.415Z,26.56
2022-09-01T13:44:18.686Z,26.53
2022-09-01T13:50:04.665Z,26.46
2022-09-01T13:52:23.734Z,26.43
2022-09-01T13:54:51.575Z,26.36
2022-09-01T13:57:19.422Z,26.40
2022-09-01T13:59:47.176Z,26.42
2022-09-01T14:02:14.960Z,26.41
2022-09-01T14:04:42.804Z,26.45
2022-09-01T14:07:10.676Z,26.58
2022-09-01T14:09:38.424Z,26.78
2022-09-01T14:12:06.404Z,27.00
2022-09-01T14:17:23.235Z,27.44
2022-09-01T14:19:51.444Z,27.61
2022-09-01T14:22:19.262Z,27.82
2022-09-01T14:24:47.287Z,27.99
2022-09-01T14:27:15.262Z,28.13
2022-09-01T14:32:09.975Z,28.34
2022-09-01T14:34:37.758Z,28.47
2022-09-01T14:37:05.645Z,28.61
2022-09-01T14:39:33.871Z,28.65
2022-09-01T14:42:01.712Z,28.73
2022-09-01T14:44:29.464Z,28.78
2022-09-01T14:46:57.804Z,28.83
2022-09-01T14:49:26.091Z,28.92
2022-09-01T14:52:11.496Z,29.06
2022-09-01T14:54:42.520Z,29.17
2022-09-01T14:59:59.803Z,29.13
2022-09-01T15:02:29.266Z,29.20
2022-09-01T15:04:57.108Z,29.31
2022-09-01T15:07:24.995Z,29.42
2022-09-01T15:09:52.901Z,29.48
2022-09-01T15:12:20.738Z,29.61
2022-09-01T15:14:48.941Z,29.70
2022-09-01T15:17:17.215Z,29.74
2022-09-01T15:19:44.996Z,29.65
2022-09-01T15:22:13.610Z,29.68
2022-09-01T15:24:41.390Z,29.75
2022-09-01T15:27:11.384Z,29.67
2022-09-01T15:29:46.111Z,29.38
2022-09-01T15:32:20.530Z,29.16
2022-09-01T15:34:56.485Z,28.93
2022-09-01T15:37:24.363Z,28.71
2022-09-01T15:39:53.248Z,28.47
2022-09-01T15:42:21.937Z,28.35
2022-09-01T15:44:49.956Z,28.18
2022-09-01T15:47:17.811Z,28.00
2022-09-01T15:49:45.634Z,27.91
2022-09-01T15:52:13.459Z,27.74
2022-09-01T15:54:41.259Z,27.61
2022-09-01T15:57:09.199Z,27.50
2022-09-01T15:59:40.105Z,27.44
2022-09-01T16:02:10.374Z,27.35
2022-09-01T16:04:39.252Z,27.28
2022-09-01T16:07:07.048Z,27.35
2022-09-01T16:09:36.907Z,27.43
2022-09-01T16:12:06.429Z,27.54
2022-09-01T16:14:34.323Z,27.65
2022-09-01T16:17:47.320Z,27.77
2022-09-01T16:20:24.765Z,27.88
2022-09-01T16:23:08.179Z,27.93
2022-09-01T16:25:35.985Z,27.88
2022-09-01T16:28:13.538Z,27.83
2022-09-01T16:30:41.477Z,27.73
2022-09-01T16:33:19.941Z,27.66
2022-09-01T16:35:59.912Z,27.59
2022-09-01T16:38:54.422Z,27.50
2022-09-01T16:41:45.347Z,27.37
2022-09-01T16:45:05.421Z,27.19
2022-09-01T16:47:54.720Z,27.04
2022-09-01T16:50:40.967Z,26.86
2022-09-01T16:53:18.139Z,26.75
2022-09-01T16:56:10.004Z,26.58
2022-09-01T16:58:59.074Z,26.48
2022-09-01T17:01:48.512Z,26.41
2022-09-01T17:04:33.249Z,26.32
2022-09-01T17:07:29.641Z,26.22
2022-09-01T17:10:37.153Z,26.16
2022-09-01T17:13:40.131Z,26.11
2022-09-01T17:16:23.156Z,26.02
2022-09-01T17:19:04.859Z,25.97
2022-09-01T17:21:46.117Z,25.90
2022-09-01T17:24:29.138Z,25.80
2022-09-01T17:27:08.551Z,25.78
2022-09-01T17:29:44.964Z,25.68
2022-09-01T17:33:01.103Z,25.59
2022-09-01T17:36:25.217Z,25.45
2022-09-01T17:39:11.764Z,25.39
2022-09-01T17:42:00.458Z,25.30
2022-09-01T17:44:43.224Z,25.25
2022-09-01T17:47:21.480Z,25.19
2022-09-01T17:50:38.743Z,25.13
2022-09-01T17:53:23.307Z,25.09
2022-09-01T17:56:11.098Z,25.00
2022-09-01T17:58:41.560Z,24.91
2022-09-01T18:01:54.249Z,24.82
2022-09-01T18:04:42.839Z,24.80
2022-09-01T18:08:16.796Z,24.72
2022-09-01T18:10:58.163Z,24.68
2022-09-01T18:14:12.632Z,24.58
2022-09-01T18:17:20.717Z,24.52
2022-09-01T18:20:01.734Z,24.52
2022-09-01T18:22:44.675Z,24.42
2022-09-01T18:25:24.064Z,24.39
2022-09-01T18:27:51.864Z,24.29
2022-09-01T18:30:42.525Z,24.22
2022-09-01T18:33:36.175Z,24.19
2022-09-01T18:36:31.875Z,24.14
2022-09-01T18:39:36.090Z,24.05
2022-09-01T18:42:36.691Z,24.01
2022-09-01T18:45:37.847Z,23.96
2022-09-01T18:48:33.464Z,23.91
2022-09-01T18:51:15.211Z,23.85
2022-09-01T18:53:56.654Z,23.77
2022-09-01T18:56:52.159Z,23.70
2022-09-01T18:59:49.688Z,23.63
2022-09-01T19:02:47.938Z,23.57
2022-09-01T19:06:39.826Z,23.48
2022-09-01T19:09:14.531Z,23.43
2022-09-01T19:12:24.048Z,23.35
2022-09-01T19:14:54.574Z,23.35
2022-09-01T19:17:46.425Z,23.31
2022-09-01T19:20:27.770Z,23.30
2022-09-01T19:23:04.582Z,23.25
2022-09-01T19:25:38.823Z,23.22
2022-09-01T19:28:47.069Z,23.19
2022-09-01T19:31:29.058Z,23.16
2022-09-01T19:34:06.422Z,23.12
2022-09-01T19:36:40.107Z,23.06
2022-09-01T19:39:17.264Z,22.98
2022-09-01T19:42:35.541Z,22.93
2022-09-01T19:45:14.385Z,22.90
2022-09-01T19:48:21.108Z,22.80
2022-09-01T19:51:13.485Z,22.79
2022-09-01T19:54:24.652Z,22.74
2022-09-01T19:57:33.134Z,22.71
2022-09-01T20:00:20.308Z,22.67
2022-09-01T20:03:07.722Z,22.63
2022-09-01T20:09:17.230Z,22.53
2022-09-01T20:12:32.326Z,22.42
2022-09-01T20:15:20.945Z,22.38
2022-09-01T20:18:27.046Z,22.29
2022-09-01T20:20:58.337Z,22.29
2022-09-01T20:24:09.312Z,22.21
2022-09-01T20:26:52.755Z,22.20
2022-09-01T20:30:03.940Z,22.16
2022-09-01T20:32:43.048Z,22.16
2022-09-01T20:35:20.792Z,22.13
2022-09-01T20:37:56.629Z,22.09
2022-09-01T20:40:35.793Z,22.07
2022-09-01T20:43:22.609Z,22.06
2022-09-01T20:45:51.017Z,22.04
2022-09-01T20:48:25.510Z,22.03
2022-09-01T20:51:18.522Z,22.00
2022-09-01T20:54:23.033Z,21.97
2022-09-01T20:57:35.864Z,21.97
2022-09-01T21:00:35.303Z,21.96
2022-09-01T21:03:41.292Z,21.95
2022-09-01T21:06:24.389Z,21.91
2022-09-01T21:09:24.259Z,21.87
2022-09-01T21:12:06.789Z,21.88
2022-09-01T21:14:43.308Z,21.90
2022-09-01T21:17:22.740Z,21.86
2022-09-01T21:20:22.070Z,21.85
2022-09-01T21:22:55.632Z,21.86
2022-09-01T21:25:24.355Z,21.96
2022-09-01T21:27:58.721Z,21.90
2022-09-01T21:30:30.408Z,21.83
2022-09-01T21:32:59.171Z,21.79
2022-09-01T21:35:27.112Z,21.75
2022-09-01T21:37:55.328Z,21.71
2022-09-01T21:40:25.427Z,21.66
2022-09-01T21:43:07.453Z,21.61
2022-09-01T21:45:38.030Z,21.54
2022-09-01T21:48:06.602Z,21.48
2022-09-01T21:50:34.390Z,21.42
2022-09-01T21:53:02.254Z,21.38
2022-09-01T21:55:31.591Z,21.36
2022-09-01T21:57:59.723Z,21.34
2022-09-01T22:00:31.700Z,21.33
2022-09-01T22:03:01.767Z,21.30
2022-09-01T22:05:31.123Z,21.29
2022-09-01T22:07:59.087Z,21.29
2022-09-01T22:10:29.716Z,21.28
2022-09-01T22:13:03.633Z,21.28
2022-09-01T22:15:31.908Z,21.28
2022-09-01T22:17:59.691Z,21.24
2022-09-01T22:20:29.210Z,21.25
2022-09-01T22:23:01.830Z,21.22
2022-09-01T22:25:32.643Z,21.22
2022-09-01T22:28:04.001Z,21.18
2022-09-01T22:30:32.412Z,21.17
2022-09-01T22:33:01.628Z,21.15
2022-09-01T22:35:29.803Z,21.15
2022-09-01T22:37:57.577Z,21.14
2022-09-01T22:40:25.385Z,21.12
2022-09-01T22:42:53.205Z,21.10
2022-09-01T22:45:21.150Z,21.09
2022-09-01T22:47:49.491Z,21.08
2022-09-01T22:50:18.373Z,21.03
2022-09-01T22:52:46.162Z,21.02
2022-09-01T22:55:13.912Z,20.99
2022-09-01T22:57:41.895Z,20.97
2022-09-01T23:00:10.940Z,20.95
2022-09-01T23:02:39.026Z,20.94
2022-09-01T23:05:08.311Z,20.93
2022-09-01T23:07:39.750Z,20.92
2022-09-01T23:10:09.126Z,20.89
2022-09-01T23:12:37.010Z,20.83
2022-09-01T23:15:05.668Z,20.82
2022-09-01T23:17:33.489Z,20.81
2022-09-01T23:20:02.348Z,20.80
2022-09-01T23:22:30.163Z,20.77
2022-09-01T23:24:58.009Z,20.76
2022-09-01T23:27:25.857Z,20.75
2022-09-01T23:29:53.638Z,20.72
2022-09-01T23:32:21.434Z,20.70
2022-09-01T23:34:49.577Z,20.67
2022-09-01T23:37:17.424Z,20.67
2022-09-01T23:39:45.297Z,20.64
2022-09-01T23:42:13.125Z,20.65
2022-09-01T23:44:40.895Z,20.65
2022-09-01T23:47:08.757Z,20.61
2022-09-01T23:49:36.561Z,20.58
2022-09-01T23:52:04.401Z,20.54
2022-09-01T23:54:32.344Z,20.53
2022-09-01T23:57:00.785Z,20.52
2022-09-01T23:59:29.001Z,20.50
